Terminal Aerodrome Forecast
Issued by NWS

Home | Current Version | Previous Version | Text Only | Print | Product List | Glossary On
Versions: 1 2 3 4 5 6 7 8 9 10 11 12 13 14 15 16 17 18 19
663
FTUS43 KFGF 071133
TAFTVF
TAF
KTVF 071133Z 0712/0812 30023G34KT 1 1/2SM -SN OVC015
      TEMPO 0717/0721 3/4SM -SN OVC008
     FM080000 31024G34KT P6SM -SN OVC015
     FM080100 31024G34KT P6SM -SN OVC015=

USA.gov is the U.S. government's official web portal to all federal, state and local government web resources and services.